Airfield :
LOGIN :

Register | Disclaimer

   EN    FR    IT 

 










Legend :    VFR   Marginal VFR   IFR   Intensive IFR   Very Intensive IFR
Visi :
Ceiling :
>= 8 km
>= 3000ft
5 to 8 km
1000 to 3000 ft
1500m to 5 km
500 to 1000 ft
800 to 1500m
200 to 500 ft
< 800m
< 200 ft
Symbols :   Thunderstorms  Fog  Heavy snow  Heavy precipitations  Wind > 20 kt
SIGMETs :     Misc.  Thunderstorms  Icing  Turbulence  Mountain Waves  Volcanic Ashes







- Airport Elevation : 156 ft
- IATA code : LCC


LIBN - Lecce Galatine (military)

CURRENT METAR :
  • 152255Z 05007KT CAVOK 09/02 Q1026 RMK SKC VIS MIN 9999 WIND THR14 04006KT WIND THR32 04006KT BLU

EXPIRED METARs :
  • 152155Z 05007KT CAVOK 09/02 Q1025 RMK SKC VIS MIN 9999 WIND THR14 05007KT WIND THR32 05008KT BLU
  • 152055Z 04007KT CAVOK 09/01 Q1025 RMK SKC VIS MIN 9999 WIND THR14 04008KT WIND THR32 04008KT BLU
  • 151955Z 05010KT CAVOK 10/01 Q1024 RMK FEW FEW060 VIS MIN 9999 WIND THR14 05010KT WIND THR32 05011KT BLU

TAF TAF LIBN
Valid from the 15 at 15:00 until the 16 at 00:00 UTC


151400Z 1515/1524 02010KT 9999 SCT030
TEMPO 1515/1517 03018G28KT
No reported NOTAMs for that airfield.



MET'MAP, your aeronautical weather chart ! - Copyright ORBIFLY December 2007 - Disclaimer

ORBIFLY MET'MAP TEAM :

Programming & Development : Alexandra Zaïnal
Concept & Development : Baudouin d'Aumeries
Co-Development & Prog : Marc-Olivier Méhu
Technical & hardware support : Manuel Goepfert

Contact : metmap@orbifly.com




SOURCES & CREDITS :

   NOAA